Time;durP1;ratioP1;P1;durP2;ratioP2;P2;SDS_P1;SDS_P2;PMS_P1;PMS_P2;Temp;Humidity;BMP_temperature;BMP_pressure;BME280_temperature;BME280_humidity;BME280_pressure;Samples;Min_cycle;Max_cycle;Signal;HPM_P1;HPM_P2
2021/06/13 00:01:10;;;;;;;1.73;1.50;;;12.80;99.90;;;;;;4916813;29;20386;-77
2021/06/13 00:03:36;;;;;;;1.92;1.75;;;12.80;99.90;;;;;;4906251;29;20477;-79
2021/06/13 00:06:02;;;;;;;1.60;1.50;;;12.80;99.90;;;;;;4870708;29;20401;-77
2021/06/13 00:08:28;;;;;;;1.60;1.50;;;12.80;99.90;;;;;;4887751;29;20493;-77
2021/06/13 00:10:54;;;;;;;1.60;1.50;;;12.80;99.90;;;;;;4902292;28;20429;-77
2021/06/13 00:13:19;;;;;;;2.90;1.75;;;12.80;99.90;;;;;;4884874;29;20407;-77
2021/06/13 00:15:45;;;;;;;1.52;1.42;;;12.70;99.90;;;;;;4920311;29;21110;-77
2021/06/13 00:18:11;;;;;;;1.67;1.30;;;12.70;99.90;;;;;;4889372;29;20404;-77
2021/06/13 00:20:36;;;;;;;3.47;1.70;;;12.70;99.90;;;;;;4876254;29;20858;-77
2021/06/13 00:23:02;;;;;;;1.70;1.47;;;12.60;99.90;;;;;;4903770;29;20447;-78
2021/06/13 00:25:28;;;;;;;2.25;1.75;;;12.60;99.90;;;;;;4898430;29;20408;-78
2021/06/13 00:27:53;;;;;;;2.00;1.70;;;12.60;99.90;;;;;;4871255;29;20423;-77
2021/06/13 00:30:19;;;;;;;1.70;1.60;;;12.60;99.90;;;;;;4887514;29;20405;-77
2021/06/13 00:32:45;;;;;;;1.60;1.50;;;12.50;99.90;;;;;;4903149;28;20769;-77
2021/06/13 00:35:11;;;;;;;2.00;1.60;;;12.50;99.90;;;;;;4873250;29;20411;-77
2021/06/13 00:37:37;;;;;;;3.85;1.70;;;12.50;99.90;;;;;;4888213;29;20767;-77
2021/06/13 00:40:04;;;;;;;2.83;1.80;;;12.50;99.90;;;;;;4867677;29;20411;-77
2021/06/13 00:42:29;;;;;;;1.73;1.60;;;12.40;99.90;;;;;;4883103;29;20514;-78
2021/06/13 00:44:55;;;;;;;2.42;1.83;;;12.40;99.90;;;;;;4899050;29;20433;-77
2021/06/13 00:47:21;;;;;;;1.50;1.40;;;12.40;99.90;;;;;;4907236;29;20410;-77
2021/06/13 00:49:47;;;;;;;2.50;1.60;;;12.40;99.90;;;;;;4866663;29;20404;-77
2021/06/13 00:52:13;;;;;;;1.50;1.40;;;12.40;99.90;;;;;;4884349;29;20402;-77
2021/06/13 00:54:39;;;;;;;1.70;1.60;;;12.40;99.90;;;;;;4884106;29;20398;-77
2021/06/13 00:57:05;;;;;;;1.80;1.40;;;12.40;99.90;;;;;;4886095;29;20406;-77
2021/06/13 00:59:31;;;;;;;3.00;1.60;;;12.30;99.90;;;;;;4902308;29;21077;-77
2021/06/13 01:01:57;;;;;;;2.70;1.53;;;12.40;99.90;;;;;;4883234;29;20448;-77
2021/06/13 01:04:22;;;;;;;1.63;1.42;;;12.20;99.90;;;;;;4880961;29;20413;-77
2021/06/13 01:07:08;;;;;;;1.60;1.50;;;12.20;99.90;;;;;;4902461;29;20398;-77
2021/06/13 01:09:38;;;;;;;3.10;1.80;;;12.10;99.90;;;;;;4904344;29;20416;-77
2021/06/13 01:12:07;;;;;;;2.65;1.73;;;12.10;99.90;;;;;;4896602;29;20436;-77
2021/06/13 01:14:49;;;;;;;2.10;1.50;;;12.10;99.90;;;;;;4911533;29;20399;-78
2021/06/13 01:17:21;;;;;;;1.98;1.88;;;12.00;99.90;;;;;;4883019;29;20438;-77
2021/06/13 01:20:20;;;;;;;1.58;1.40;;;12.00;99.90;;;;;;4881498;29;20395;-78
2021/06/13 01:23:25;;;;;;;2.08;1.88;;;11.90;99.90;;;;;;4895316;29;20414;-77
2021/06/13 01:26:24;;;;;;;3.97;1.90;;;11.90;99.90;;;;;;4889632;28;20458;-77
2021/06/13 01:28:57;;;;;;;2.05;1.85;;;11.80;99.90;;;;;;4878722;29;20425;-77
2021/06/13 01:31:56;;;;;;;2.15;1.85;;;11.80;99.90;;;;;;4890180;29;20562;-77
2021/06/13 01:34:29;;;;;;;1.80;1.70;;;11.80;99.90;;;;;;4883823;29;20777;-77
2021/06/13 01:36:56;;;;;;;1.73;1.60;;;11.80;99.90;;;;;;4872720;29;20403;-77
2021/06/13 01:39:25;;;;;;;2.05;1.85;;;11.80;99.90;;;;;;4880503;29;20401;-77
2021/06/13 01:41:58;;;;;;;2.05;1.88;;;11.80;99.90;;;;;;4896575;29;20392;-77
2021/06/13 01:44:25;;;;;;;2.72;1.60;;;11.70;99.90;;;;;;4895922;29;20407;-77
2021/06/13 01:46:51;;;;;;;2.90;2.03;;;11.70;99.90;;;;;;4876253;28;20427;-76
2021/06/13 01:49:17;;;;;;;1.98;1.73;;;11.60;99.90;;;;;;4886651;29;20416;-77
2021/06/13 01:51:44;;;;;;;2.00;1.85;;;11.60;99.90;;;;;;4884568;29;20399;-77
2021/06/13 01:54:10;;;;;;;1.90;1.70;;;11.60;99.90;;;;;;4899456;29;20402;-77
2021/06/13 01:56:37;;;;;;;1.98;1.88;;;11.60;99.90;;;;;;4869955;29;20399;-77
2021/06/13 01:59:02;;;;;;;2.17;1.77;;;11.50;99.90;;;;;;4882230;29;20407;-77
2021/06/13 02:01:36;;;;;;;1.85;1.42;;;11.50;99.90;;;;;;4891504;29;20489;-77
2021/06/13 02:04:04;;;;;;;2.92;1.85;;;11.50;99.90;;;;;;4869321;28;20405;-77
2021/06/13 02:06:47;;;;;;;1.63;1.53;;;11.50;99.90;;;;;;4904837;28;20418;-77
2021/06/13 02:09:15;;;;;;;1.80;1.52;;;11.50;99.90;;;;;;4885726;29;20423;-77
2021/06/13 02:11:43;;;;;;;2.10;1.73;;;11.40;99.90;;;;;;4867399;29;20403;-76
2021/06/13 02:14:11;;;;;;;2.15;1.92;;;11.40;99.90;;;;;;4889235;29;20434;-77
2021/06/13 02:16:43;;;;;;;2.00;1.80;;;11.40;99.90;;;;;;4874030;28;20406;-77
2021/06/13 02:19:10;;;;;;;3.13;1.70;;;11.30;99.90;;;;;;4884701;29;20400;-77
2021/06/13 02:21:37;;;;;;;2.55;1.80;;;11.30;99.90;;;;;;4881746;29;20399;-78
2021/06/13 02:24:02;;;;;;;1.73;1.48;;;11.30;99.90;;;;;;4881834;29;20478;-77
2021/06/13 02:26:30;;;;;;;2.15;1.67;;;11.30;99.90;;;;;;4909266;29;20452;-77
2021/06/13 02:28:57;;;;;;;2.53;1.83;;;11.30;99.90;;;;;;4867267;29;20516;-77
2021/06/13 02:31:26;;;;;;;2.95;1.67;;;11.30;99.90;;;;;;4880884;29;20407;-77
2021/06/13 02:33:53;;;;;;;1.63;1.52;;;11.20;99.90;;;;;;4871179;29;20411;-77
2021/06/13 02:36:19;;;;;;;1.85;1.70;;;11.20;99.90;;;;;;4892568;29;20412;-77
2021/06/13 02:38:54;;;;;;;3.47;1.90;;;11.20;99.90;;;;;;4883672;29;20403;-76
2021/06/13 02:41:19;;;;;;;2.25;1.80;;;11.20;99.90;;;;;;4894888;29;20410;-76
2021/06/13 02:43:45;;;;;;;1.95;1.75;;;11.20;99.90;;;;;;4881903;29;20404;-76
2021/06/13 02:46:12;;;;;;;1.90;1.60;;;11.20;99.90;;;;;;4872459;29;20435;-76
2021/06/13 02:48:37;;;;;;;2.53;1.70;;;11.10;99.90;;;;;;4881553;29;20441;-79
2021/06/13 02:51:03;;;;;;;2.50;1.90;;;11.20;99.90;;;;;;4912383;29;20847;-77
2021/06/13 02:53:44;;;;;;;1.80;1.70;;;11.10;99.90;;;;;;4913228;29;20468;-78
2021/06/13 02:56:18;;;;;;;1.77;1.67;;;11.10;99.90;;;;;;4898960;29;20418;-77
2021/06/13 02:58:58;;;;;;;1.70;1.60;;;11.00;99.90;;;;;;4891673;29;20408;-77
2021/06/13 03:01:24;;;;;;;1.73;1.63;;;11.00;99.90;;;;;;4890441;29;20415;-76
2021/06/13 03:03:53;;;;;;;3.33;2.00;;;11.00;99.90;;;;;;4882626;29;20406;-76
2021/06/13 03:06:21;;;;;;;2.60;1.55;;;11.00;99.90;;;;;;4881078;29;20555;-77
2021/06/13 03:08:49;;;;;;;1.88;1.60;;;11.00;99.90;;;;;;4886304;29;20417;-76
2021/06/13 03:11:17;;;;;;;1.75;1.60;;;11.00;99.90;;;;;;4863496;29;20417;-76
2021/06/13 03:13:44;;;;;;;2.33;2.03;;;10.90;99.90;;;;;;4872198;29;20479;-77
2021/06/13 03:16:11;;;;;;;2.17;1.73;;;10.90;99.90;;;;;;4877600;28;20405;-77
2021/06/13 03:18:36;;;;;;;4.13;1.63;;;10.90;99.90;;;;;;4881898;29;20550;-76
2021/06/13 03:21:03;;;;;;;1.80;1.70;;;11.00;99.90;;;;;;4878900;29;20409;-76
2021/06/13 03:23:30;;;;;;;2.58;1.88;;;11.00;99.90;;;;;;4862805;29;20433;-76
2021/06/13 03:25:57;;;;;;;1.95;1.73;;;11.10;99.90;;;;;;4872120;29;20413;-77
2021/06/13 03:28:23;;;;;;;1.80;1.70;;;11.10;99.90;;;;;;4905234;29;20412;-76
2021/06/13 03:30:51;;;;;;;1.90;1.80;;;11.10;99.90;;;;;;4878387;29;20760;-76
2021/06/13 03:33:17;;;;;;;1.80;1.70;;;11.20;99.90;;;;;;4879542;29;20416;-77
2021/06/13 03:35:45;;;;;;;1.70;1.60;;;11.20;99.90;;;;;;4899516;29;20441;-75
2021/06/13 03:38:11;;;;;;;1.73;1.63;;;11.20;99.90;;;;;;4877716;29;20929;-76
2021/06/13 03:40:36;;;;;;;1.83;1.70;;;11.20;99.90;;;;;;4896490;29;20395;-77
2021/06/13 03:43:03;;;;;;;2.42;1.83;;;11.20;99.90;;;;;;4881624;29;20536;-76
2021/06/13 03:45:28;;;;;;;2.50;1.90;;;11.20;99.90;;;;;;4917938;29;20502;-75
2021/06/13 03:47:54;;;;;;;1.85;1.73;;;11.20;99.90;;;;;;4884468;29;20415;-75
2021/06/13 03:50:20;;;;;;;1.97;1.77;;;11.30;99.90;;;;;;4883102;29;20431;-76
2021/06/13 03:52:45;;;;;;;1.70;1.60;;;11.30;99.90;;;;;;4903332;28;20878;-78
2021/06/13 03:55:11;;;;;;;2.57;1.83;;;11.30;99.90;;;;;;4880414;29;20401;-76
2021/06/13 03:57:39;;;;;;;2.00;1.83;;;11.40;99.90;;;;;;4925446;29;20406;-76
2021/06/13 04:00:05;;;;;;;1.80;1.70;;;11.40;99.90;;;;;;4914988;29;20791;-76
2021/06/13 04:02:45;;;;;;;2.17;1.98;;;11.40;99.90;;;;;;4926930;29;20408;-76
2021/06/13 04:05:13;;;;;;;1.65;1.55;;;11.40;99.90;;;;;;4866387;29;20946;-77
2021/06/13 04:07:38;;;;;;;2.22;2.00;;;11.50;99.90;;;;;;4902248;29;20430;-76
2021/06/13 04:10:04;;;;;;;2.40;2.00;;;11.40;99.90;;;;;;4898604;29;20400;-76
2021/06/13 04:12:30;;;;;;;2.55;1.77;;;11.40;99.90;;;;;;4900840;29;21080;-76
2021/06/13 04:14:56;;;;;;;2.20;1.90;;;11.50;99.90;;;;;;4902148;28;20398;-76
2021/06/13 04:17:23;;;;;;;4.70;1.92;;;11.60;99.90;;;;;;4881524;29;20405;-76
2021/06/13 04:19:49;;;;;;;1.90;1.75;;;11.70;99.90;;;;;;4882002;29;20489;-76
2021/06/13 04:22:16;;;;;;;3.23;1.90;;;11.80;99.90;;;;;;4883896;29;20461;-76
2021/06/13 04:24:42;;;;;;;2.30;2.10;;;11.80;99.90;;;;;;4904388;29;20816;-76
2021/06/13 04:27:09;;;;;;;2.93;1.90;;;11.90;99.90;;;;;;4882677;29;20429;-76
2021/06/13 04:29:35;;;;;;;2.97;2.15;;;12.00;99.90;;;;;;4870836;29;20402;-75
2021/06/13 04:32:00;;;;;;;2.63;1.77;;;12.10;99.90;;;;;;4885818;29;20783;-75
2021/06/13 04:34:26;;;;;;;1.90;1.75;;;12.20;99.90;;;;;;4903998;29;20403;-76
2021/06/13 04:36:51;;;;;;;2.03;1.77;;;12.30;99.90;;;;;;4891219;28;20405;-77
2021/06/13 04:39:17;;;;;;;2.28;1.50;;;12.40;99.90;;;;;;4896391;29;20405;-77
2021/06/13 04:41:43;;;;;;;2.53;1.87;;;12.50;99.90;;;;;;4880996;29;20903;-77
2021/06/13 04:44:08;;;;;;;2.38;1.67;;;12.50;99.90;;;;;;4897638;29;20901;-77
2021/06/13 04:46:34;;;;;;;3.90;1.77;;;12.60;99.90;;;;;;4906943;29;20793;-76
2021/06/13 04:49:00;;;;;;;4.00;1.80;;;12.70;99.90;;;;;;4891326;29;20499;-76
2021/06/13 04:51:26;;;;;;;2.77;1.70;;;12.80;99.90;;;;;;4916273;29;20407;-77
2021/06/13 04:54:34;;;;;;;4.93;1.48;;;12.80;99.90;;;;;;4902208;28;20426;-77
2021/06/13 04:57:21;;;;;;;1.63;1.53;;;12.80;99.90;;;;;;4872229;29;21124;-77
2021/06/13 04:59:47;;;;;;;1.92;1.75;;;12.80;99.90;;;;;;4885184;29;20471;-77
2021/06/13 05:02:14;;;;;;;3.17;1.98;;;12.80;99.90;;;;;;4900465;29;20438;-76
2021/06/13 05:04:39;;;;;;;1.95;1.73;;;12.80;99.90;;;;;;4905422;28;20825;-77
2021/06/13 05:07:05;;;;;;;2.10;1.90;;;12.80;99.90;;;;;;4872958;29;20484;-76
2021/06/13 05:09:31;;;;;;;1.92;1.65;;;13.00;99.90;;;;;;4883411;29;20416;-76
2021/06/13 05:11:57;;;;;;;1.73;1.63;;;13.10;99.90;;;;;;4892071;29;20403;-77
2021/06/13 05:14:23;;;;;;;2.50;1.97;;;13.10;99.90;;;;;;4887899;29;20410;-77
2021/06/13 05:16:48;;;;;;;2.47;1.90;;;13.10;99.90;;;;;;4900428;28;20967;-77
2021/06/13 05:19:14;;;;;;;4.30;1.77;;;13.20;99.90;;;;;;4902166;29;20395;-75
2021/06/13 05:21:40;;;;;;;2.42;1.70;;;13.30;99.90;;;;;;4868391;29;20463;-77
2021/06/13 05:24:06;;;;;;;2.00;1.70;;;13.50;99.90;;;;;;4891224;29;20850;-77
2021/06/13 05:26:31;;;;;;;4.90;2.08;;;13.60;99.90;;;;;;4892047;28;20413;-77
2021/06/13 05:28:57;;;;;;;3.28;1.90;;;13.80;99.90;;;;;;4903030;29;20424;-78
2021/06/13 05:31:23;;;;;;;2.47;1.60;;;13.80;99.90;;;;;;4897808;29;20417;-77
2021/06/13 05:33:49;;;;;;;2.23;1.97;;;14.00;99.90;;;;;;4891159;29;20467;-77
2021/06/13 05:36:14;;;;;;;2.10;1.77;;;14.20;99.90;;;;;;4893681;29;20398;-78
2021/06/13 05:38:41;;;;;;;1.67;1.57;;;14.20;99.90;;;;;;4885312;29;20408;-77
2021/06/13 05:41:08;;;;;;;4.50;2.03;;;14.30;99.90;;;;;;4898559;29;20464;-78
2021/06/13 05:43:33;;;;;;;2.03;1.58;;;14.30;99.90;;;;;;4881798;29;20417;-77
2021/06/13 05:46:01;;;;;;;2.50;2.00;;;14.40;99.90;;;;;;4891895;29;20432;-77
2021/06/13 05:48:27;;;;;;;2.95;1.85;;;14.50;99.90;;;;;;4866154;29;20943;-78
2021/06/13 05:50:53;;;;;;;3.43;2.00;;;14.70;99.90;;;;;;4891541;29;20406;-76
2021/06/13 05:53:18;;;;;;;1.73;1.63;;;14.80;99.90;;;;;;4906183;28;20408;-79
2021/06/13 05:55:44;;;;;;;5.00;1.73;;;15.00;99.90;;;;;;4905428;29;20920;-78
2021/06/13 05:58:10;;;;;;;1.60;1.42;;;15.20;99.90;;;;;;4884377;29;21094;-79
2021/06/13 06:00:36;;;;;;;2.05;1.88;;;15.40;99.90;;;;;;4880730;29;21265;-77
2021/06/13 06:03:02;;;;;;;1.70;1.60;;;15.60;99.90;;;;;;4881357;29;20420;-78
2021/06/13 06:05:28;;;;;;;1.53;1.43;;;15.70;99.90;;;;;;4888457;29;20406;-79
2021/06/13 06:07:54;;;;;;;2.10;1.88;;;15.80;99.90;;;;;;4880867;29;20784;-81
2021/06/13 06:10:21;;;;;;;2.45;1.52;;;15.90;99.90;;;;;;4867423;29;20954;-78
2021/06/13 06:12:46;;;;;;;3.17;1.88;;;16.00;99.90;;;;;;4881456;29;20408;-78
2021/06/13 06:15:17;;;;;;;2.10;1.85;;;15.90;99.90;;;;;;4868003;29;20522;-77
2021/06/13 06:17:43;;;;;;;2.20;1.65;;;16.00;99.90;;;;;;4889539;29;20403;-77
2021/06/13 06:20:10;;;;;;;2.47;1.63;;;16.10;99.90;;;;;;4869044;29;20418;-78
2021/06/13 06:22:35;;;;;;;3.50;1.63;;;16.10;99.90;;;;;;4897134;29;20496;-77
2021/06/13 06:25:01;;;;;;;2.45;1.75;;;16.20;99.90;;;;;;4884121;29;20579;-77
2021/06/13 06:27:27;;;;;;;2.27;1.40;;;16.40;99.90;;;;;;4884457;29;20428;-78
2021/06/13 06:29:52;;;;;;;2.00;1.55;;;16.40;99.90;;;;;;4900953;29;20416;-80
2021/06/13 06:32:18;;;;;;;2.23;1.60;;;16.40;99.90;;;;;;4867428;29;20415;-77
2021/06/13 06:34:44;;;;;;;2.55;1.60;;;16.20;99.90;;;;;;4900671;29;20407;-80
2021/06/13 06:37:09;;;;;;;2.27;1.67;;;16.10;99.90;;;;;;4888692;29;20899;-77
2021/06/13 06:39:35;;;;;;;2.08;1.70;;;16.10;99.90;;;;;;4903584;29;20419;-75
2021/06/13 06:42:01;;;;;;;1.87;1.60;;;16.10;99.90;;;;;;4914746;29;20400;-78
2021/06/13 06:44:26;;;;;;;2.35;1.60;;;16.10;99.90;;;;;;4886387;29;20512;-77
2021/06/13 06:46:52;;;;;;;3.00;1.60;;;16.00;99.90;;;;;;4900816;29;20913;-79
2021/06/13 06:49:18;;;;;;;3.55;1.45;;;16.10;99.90;;;;;;4905358;29;20406;-78
2021/06/13 06:51:43;;;;;;;2.00;1.80;;;16.00;99.90;;;;;;4868900;29;20400;-79
2021/06/13 06:54:09;;;;;;;3.40;1.63;;;16.10;99.90;;;;;;4907004;28;21597;-78
2021/06/13 06:56:35;;;;;;;3.37;1.40;;;16.30;99.90;;;;;;4883386;29;20395;-79
2021/06/13 06:59:00;;;;;;;2.30;1.52;;;16.30;99.90;;;;;;4898895;29;20414;-81
2021/06/13 07:01:26;;;;;;;2.07;1.60;;;16.50;99.90;;;;;;4896129;29;20415;-79
2021/06/13 07:03:52;;;;;;;2.60;1.70;;;16.30;99.90;;;;;;4901962;29;20409;-77
2021/06/13 07:06:17;;;;;;;1.40;1.30;;;16.30;99.90;;;;;;4919069;29;20763;-77
2021/06/13 07:08:43;;;;;;;1.67;1.58;;;16.40;99.90;;;;;;4880776;29;20418;-79
2021/06/13 07:11:09;;;;;;;1.63;1.47;;;16.20;99.90;;;;;;4881342;29;20417;-79
2021/06/13 07:13:34;;;;;;;1.42;1.25;;;16.10;99.90;;;;;;4863494;29;20488;-78
2021/06/13 07:16:00;;;;;;;1.93;1.50;;;16.10;99.90;;;;;;4882876;29;20451;-78
2021/06/13 07:18:26;;;;;;;2.28;1.40;;;16.20;99.90;;;;;;4884261;29;20470;-78
2021/06/13 07:20:56;;;;;;;1.60;1.50;;;16.20;99.90;;;;;;4884207;29;20475;-78
2021/06/13 07:23:21;;;;;;;2.00;1.67;;;16.30;99.90;;;;;;4882789;29;20418;-78
2021/06/13 07:25:47;;;;;;;1.90;1.70;;;16.40;99.90;;;;;;4908155;29;20901;-80
2021/06/13 07:28:14;;;;;;;2.27;1.50;;;16.60;99.90;;;;;;4888838;28;20428;-77
2021/06/13 07:30:40;;;;;;;2.15;1.48;;;16.60;99.90;;;;;;4868278;29;20415;-80
2021/06/13 07:33:05;;;;;;;5.53;2.83;;;16.50;99.90;;;;;;4873235;29;20464;-79
2021/06/13 07:35:31;;;;;;;4.35;1.58;;;16.60;99.90;;;;;;4887596;29;20412;-77
2021/06/13 07:38:00;;;;;;;3.23;1.67;;;16.50;99.90;;;;;;4883382;29;20416;-79
2021/06/13 07:40:25;;;;;;;2.08;1.63;;;16.30;99.90;;;;;;4869534;29;20440;-79
2021/06/13 07:42:51;;;;;;;1.80;1.70;;;16.20;99.90;;;;;;4905340;29;20443;-78
2021/06/13 07:45:17;;;;;;;2.53;1.77;;;16.10;99.90;;;;;;4883688;29;20409;-77
2021/06/13 07:47:43;;;;;;;2.77;1.67;;;16.20;99.90;;;;;;4898688;29;20487;-80
2021/06/13 07:50:10;;;;;;;2.22;1.90;;;16.40;99.90;;;;;;4896372;29;20413;-78
2021/06/13 07:52:36;;;;;;;2.50;1.77;;;16.50;99.90;;;;;;4889295;29;20472;-78
2021/06/13 07:55:03;;;;;;;2.50;1.50;;;16.40;99.90;;;;;;4888815;28;20595;-81
2021/06/13 07:57:29;;;;;;;2.00;1.70;;;16.40;99.90;;;;;;4904782;29;20929;-79
2021/06/13 07:59:54;;;;;;;1.50;1.40;;;16.50;99.90;;;;;;4900649;29;20445;-81
2021/06/13 08:02:20;;;;;;;4.00;2.40;;;16.60;99.90;;;;;;4876878;29;20444;-78
2021/06/13 08:05:08;;;;;;;2.20;1.90;;;16.80;99.90;;;;;;4882999;28;20825;-79
2021/06/13 08:07:33;;;;;;;2.17;1.43;;;16.70;99.90;;;;;;4890671;29;20409;-79
2021/06/13 08:09:59;;;;;;;1.80;1.40;;;16.80;99.90;;;;;;4870044;23;20430;-78
2021/06/13 08:12:25;;;;;;;3.10;2.10;;;16.80;99.90;;;;;;4884215;29;20464;-77
2021/06/13 08:14:51;;;;;;;3.47;2.20;;;16.90;99.90;;;;;;4887897;29;20417;-77
2021/06/13 08:17:16;;;;;;;1.52;1.42;;;16.80;99.90;;;;;;4843182;29;20488;-76
2021/06/13 08:19:42;;;;;;;2.90;1.98;;;16.80;99.90;;;;;;4867116;29;20582;-76
2021/06/13 08:22:21;;;;;;;1.60;1.50;;;16.90;99.90;;;;;;4854730;29;20439;-77
2021/06/13 08:25:02;;;;;;;2.47;1.67;;;16.80;99.90;;;;;;4835220;29;20441;-75
2021/06/13 08:27:28;;;;;;;2.72;1.60;;;16.80;99.90;;;;;;4843549;29;20443;-76
2021/06/13 08:29:54;;;;;;;1.60;1.50;;;17.00;99.90;;;;;;4848552;29;20790;-80
2021/06/13 08:32:20;;;;;;;3.65;1.95;;;16.90;99.90;;;;;;4866206;29;20401;-77
2021/06/13 08:34:46;;;;;;;2.23;1.47;;;16.90;99.90;;;;;;4896030;29;20399;-77
2021/06/13 08:37:11;;;;;;;2.60;1.75;;;16.70;99.90;;;;;;4852218;29;20424;-76
2021/06/13 08:39:37;;;;;;;3.35;1.65;;;16.60;99.90;;;;;;4828341;29;20795;-78
2021/06/13 08:42:07;;;;;;;2.42;1.67;;;16.70;99.90;;;;;;4876527;29;20503;-88
2021/06/13 08:44:33;;;;;;;1.52;1.27;;;16.70;99.90;;;;;;4838257;29;20472;-78
2021/06/13 08:46:59;;;;;;;1.50;1.40;;;16.70;99.90;;;;;;4874188;29;20491;-77
2021/06/13 08:49:25;;;;;;;3.10;1.77;;;16.80;99.90;;;;;;4887526;29;20464;-78
2021/06/13 08:51:54;;;;;;;2.87;1.70;;;16.90;99.90;;;;;;4861262;29;20442;-77
2021/06/13 08:54:21;;;;;;;1.77;1.30;;;17.00;99.90;;;;;;4861186;29;20920;-77
2021/06/13 08:56:46;;;;;;;2.35;1.83;;;17.10;99.90;;;;;;4891319;29;20416;-78
2021/06/13 08:59:12;;;;;;;2.10;1.48;;;17.00;99.90;;;;;;4810647;29;20939;-77
2021/06/13 09:01:38;;;;;;;2.50;1.60;;;17.00;99.90;;;;;;4830008;29;20409;-79
2021/06/13 09:04:04;;;;;;;1.73;1.60;;;17.00;99.90;;;;;;4848436;29;20415;-78
2021/06/13 09:06:30;;;;;;;1.83;1.55;;;17.10;99.90;;;;;;4855884;29;20923;-77
2021/06/13 09:08:56;;;;;;;3.30;1.52;;;17.10;99.90;;;;;;4887329;29;20428;-78
2021/06/13 09:11:29;;;;;;;1.45;1.35;;;16.90;99.90;;;;;;4865798;29;20497;-78
2021/06/13 09:14:10;;;;;;;2.60;1.60;;;16.90;99.90;;;;;;4835168;29;20919;-78
2021/06/13 09:16:38;;;;;;;2.95;1.55;;;16.80;99.90;;;;;;4837884;29;20416;-77
2021/06/13 09:19:04;;;;;;;2.83;1.77;;;17.10;99.90;;;;;;4845810;29;20421;-77
2021/06/13 09:21:31;;;;;;;1.97;1.77;;;17.10;99.90;;;;;;4877308;29;20422;-77
2021/06/13 09:23:58;;;;;;;2.10;1.60;;;17.00;99.90;;;;;;4859121;29;20482;-78
2021/06/13 09:26:28;;;;;;;1.67;1.17;;;17.20;99.90;;;;;;4832731;29;20416;-78
2021/06/13 09:28:54;;;;;;;1.58;1.48;;;17.20;99.90;;;;;;4843611;29;20429;-79
2021/06/13 09:31:24;;;;;;;2.13;1.40;;;17.30;99.90;;;;;;4845932;29;20480;-76
2021/06/13 09:33:51;;;;;;;3.90;1.95;;;17.20;99.90;;;;;;4828307;29;20418;-76
2021/06/13 09:36:19;;;;;;;1.60;1.50;;;17.20;99.90;;;;;;4840302;29;20415;-76
2021/06/13 09:38:46;;;;;;;1.30;1.20;;;17.20;99.90;;;;;;4883068;29;20419;-78
2021/06/13 09:41:17;;;;;;;2.13;1.60;;;17.20;99.90;;;;;;4867851;29;20439;-77
2021/06/13 09:43:49;;;;;;;2.57;1.33;;;17.20;99.90;;;;;;4892146;29;20453;-77
2021/06/13 09:46:17;;;;;;;1.98;1.55;;;17.20;99.90;;;;;;4874382;29;20508;-78
2021/06/13 09:48:45;;;;;;;1.50;1.40;;;17.30;99.90;;;;;;4840750;29;20433;-77
2021/06/13 09:51:17;;;;;;;1.40;1.30;;;17.40;99.90;;;;;;4846220;29;21227;-77
2021/06/13 09:53:44;;;;;;;2.08;1.30;;;17.70;99.90;;;;;;4832136;29;20427;-78
2021/06/13 09:56:11;;;;;;;1.60;1.50;;;17.60;99.90;;;;;;4833552;29;20441;-77
2021/06/13 09:58:47;;;;;;;1.50;1.40;;;17.80;99.90;;;;;;4851854;29;20946;-77
2021/06/13 10:01:12;;;;;;;2.08;1.40;;;17.70;99.90;;;;;;4864562;29;20416;-76
2021/06/13 10:03:38;;;;;;;1.40;1.30;;;17.90;99.90;;;;;;4865372;29;20420;-77
2021/06/13 10:06:06;;;;;;;1.63;1.50;;;18.00;99.90;;;;;;4833874;29;20796;-76
2021/06/13 10:08:32;;;;;;;2.70;1.17;;;17.90;99.90;;;;;;4845802;29;20480;-77
2021/06/13 10:11:00;;;;;;;4.85;1.52;;;17.80;99.90;;;;;;4846304;29;20442;-78
2021/06/13 10:13:58;;;;;;;1.33;1.30;;;17.70;99.90;;;;;;4881006;29;20477;-78
2021/06/13 10:16:31;;;;;;;1.67;1.48;;;17.50;99.90;;;;;;4853652;29;20473;-78
2021/06/13 10:19:02;;;;;;;1.80;1.30;;;17.10;99.90;;;;;;4882204;29;20504;-82
2021/06/13 10:21:35;;;;;;;1.60;1.50;;;17.20;99.90;;;;;;4850163;29;20413;-80
2021/06/13 10:24:02;;;;;;;1.40;1.30;;;17.30;99.90;;;;;;4876081;29;20403;-78
2021/06/13 10:26:27;;;;;;;1.57;1.40;;;17.50;99.90;;;;;;4839837;29;20417;-78
2021/06/13 10:28:53;;;;;;;1.38;1.27;;;17.50;99.90;;;;;;4852284;29;20971;-78
2021/06/13 10:31:19;;;;;;;4.72;1.40;;;17.50;99.90;;;;;;4849431;29;20480;-78
2021/06/13 10:33:45;;;;;;;2.33;1.33;;;17.60;99.90;;;;;;4835881;29;20999;-80
2021/06/13 10:36:11;;;;;;;3.07;1.30;;;17.50;99.90;;;;;;4852658;29;20659;-77
2021/06/13 10:38:37;;;;;;;1.35;1.17;;;17.60;99.90;;;;;;4866273;29;20419;-77
2021/06/13 10:41:04;;;;;;;2.10;1.20;;;17.80;99.90;;;;;;4865030;29;20541;-76
2021/06/13 10:43:30;;;;;;;1.90;1.60;;;17.60;99.90;;;;;;4865038;29;20468;-76
2021/06/13 10:46:16;;;;;;;1.10;1.10;;;17.50;99.90;;;;;;4864962;29;20512;-77
2021/06/13 10:48:43;;;;;;;1.30;1.20;;;17.60;99.90;;;;;;4869894;29;20431;-76
2021/06/13 10:51:27;;;;;;;1.40;1.30;;;17.70;99.90;;;;;;4848839;29;20432;-78
2021/06/13 10:53:53;;;;;;;1.63;1.53;;;17.80;99.90;;;;;;4866314;29;20428;-78
2021/06/13 10:56:25;;;;;;;1.20;1.10;;;17.80;99.90;;;;;;4838041;29;20420;-79
2021/06/13 10:58:54;;;;;;;1.50;1.40;;;17.90;99.90;;;;;;4802304;29;20428;-77
2021/06/13 11:01:23;;;;;;;3.13;1.30;;;18.00;99.90;;;;;;4811800;29;20434;-78
2021/06/13 11:04:06;;;;;;;1.50;1.40;;;17.90;99.90;;;;;;4863654;29;20414;-78
2021/06/13 11:06:45;;;;;;;1.83;1.38;;;18.00;99.90;;;;;;4867198;29;20417;-78
2021/06/13 11:09:14;;;;;;;1.30;1.17;;;18.00;99.90;;;;;;4882103;29;20449;-78
2021/06/13 11:11:42;;;;;;;1.10;1.10;;;17.70;99.90;;;;;;4852908;29;20412;-79
2021/06/13 11:14:27;;;;;;;1.92;1.50;;;17.70;99.90;;;;;;4859242;29;20395;-78
2021/06/13 11:16:53;;;;;;;2.97;1.50;;;17.60;99.90;;;;;;4849762;29;20416;-77
2021/06/13 11:19:30;;;;;;;1.35;1.25;;;17.50;99.90;;;;;;4869723;29;20423;-77
2021/06/13 11:22:17;;;;;;;1.35;1.25;;;17.40;99.90;;;;;;4869193;29;20422;-77
2021/06/13 11:24:49;;;;;;;4.22;1.60;;;17.50;99.90;;;;;;4863202;29;20423;-77
2021/06/13 11:27:15;;;;;;;2.00;1.42;;;17.60;99.90;;;;;;4838679;29;20452;-77
2021/06/13 11:29:52;;;;;;;3.80;1.40;;;17.50;99.90;;;;;;4860543;29;20784;-78
2021/06/13 11:32:48;;;;;;;1.60;1.47;;;17.50;99.90;;;;;;4865668;29;20413;-79
2021/06/13 11:35:30;;;;;;;2.38;1.55;;;17.50;99.90;;;;;;4875112;29;20426;-78
2021/06/13 11:38:11;;;;;;;1.53;1.40;;;17.40;99.90;;;;;;4880500;29;20499;-77
2021/06/13 11:40:38;;;;;;;3.90;1.70;;;17.20;99.90;;;;;;4864767;29;20419;-77
2021/06/13 11:43:10;;;;;;;5.28;1.70;;;17.10;99.90;;;;;;4850968;29;20405;-76
2021/06/13 11:45:36;;;;;;;1.60;1.50;;;17.20;99.90;;;;;;4880931;29;20546;-78
2021/06/13 11:48:26;;;;;;;2.13;1.60;;;17.30;99.90;;;;;;4860344;29;20423;-78
2021/06/13 11:51:11;;;;;;;2.38;1.52;;;17.20;99.90;;;;;;4848528;29;20419;-77
2021/06/13 11:53:59;;;;;;;1.80;1.57;;;17.20;99.90;;;;;;4846834;29;20408;-78
2021/06/13 11:56:39;;;;;;;1.67;1.58;;;17.20;99.90;;;;;;4831056;29;20432;-76
2021/06/13 11:59:16;;;;;;;1.65;1.55;;;17.20;99.90;;;;;;4860595;29;20413;-77
2021/06/13 12:01:46;;;;;;;1.80;1.60;;;17.30;99.90;;;;;;4861398;29;20493;-77
2021/06/13 12:04:13;;;;;;;2.65;1.88;;;17.50;99.90;;;;;;4866323;29;20491;-78
2021/06/13 12:06:39;;;;;;;1.63;1.52;;;17.80;99.90;;;;;;4834814;29;20492;-77
2021/06/13 12:09:09;;;;;;;7.07;1.88;;;17.80;99.90;;;;;;4845227;29;20420;-77
2021/06/13 12:11:40;;;;;;;1.50;1.40;;;18.10;99.90;;;;;;4864460;29;20918;-78
2021/06/13 12:14:33;;;;;;;1.63;1.53;;;18.50;99.90;;;;;;4876406;29;20461;-77
2021/06/13 12:17:04;;;;;;;2.92;1.95;;;19.00;99.90;;;;;;4869820;29;20774;-77
2021/06/13 12:20:02;;;;;;;1.45;1.35;;;19.40;99.90;;;;;;4853241;29;20768;-77
2021/06/13 12:22:51;;;;;;;2.10;1.80;;;20.00;99.90;;;;;;4861792;29;20407;-78
2021/06/13 12:27:49;;;;;;;1.85;1.60;;;20.90;99.90;;;;;;4871832;29;20483;-80
2021/06/13 12:30:25;;;;;;;2.42;1.65;;;21.20;99.90;;;;;;4840387;29;20514;-79
2021/06/13 12:32:59;;;;;;;2.75;1.25;;;20.90;99.90;;;;;;4890622;29;21346;-78
2021/06/13 12:35:29;;;;;;;2.10;1.30;;;20.90;99.90;;;;;;4876098;29;20514;-80
2021/06/13 12:37:57;;;;;;;2.22;1.40;;;20.70;99.90;;;;;;4886568;29;20944;-80
2021/06/13 12:40:23;;;;;;;2.00;1.50;;;20.80;99.90;;;;;;4871567;29;20409;-79
2021/06/13 12:42:49;;;;;;;2.22;1.50;;;20.70;99.90;;;;;;4855707;29;20439;-80
2021/06/13 12:45:16;;;;;;;1.20;1.20;;;20.40;99.90;;;;;;4867959;29;20942;-80
2021/06/13 12:47:43;;;;;;;3.50;1.45;;;20.00;99.90;;;;;;4869531;29;20988;-79
2021/06/13 12:50:10;;;;;;;1.63;1.52;;;19.70;99.90;;;;;;4864641;29;20412;-79
2021/06/13 12:52:37;;;;;;;1.67;1.50;;;19.50;99.90;;;;;;4838923;29;20976;-79
2021/06/13 12:55:07;;;;;;;1.70;1.60;;;19.10;99.90;;;;;;4874511;29;20416;-77
2021/06/13 12:57:38;;;;;;;2.57;1.37;;;19.10;99.90;;;;;;4841493;29;20889;-78
2021/06/13 13:00:05;;;;;;;2.25;1.55;;;18.90;99.90;;;;;;4838067;29;21099;-80